Terminal Aerodrome Forecast
Issued by NWS

Home | Current Version | Previous Version | Text Only | Print | Product List | Glossary On
Versions: 1 2 3 4 5 6 7 8 9 10 11 12 13 14
000
FTUS41 KBTV 211500 AAA
TAFSLK
TAF AMD
KSLK 211532Z 2116/2212 18004KT P6SM VCSH SCT020 BKN060
     FM211900 14005KT P6SM -SHRA SCT015 OVC035
      TEMPO 2119/2123 3SM SHRA BKN025
     FM220300 VRB03KT 6SM BR VCSH SCT010 BKN050=

USA.gov is the U.S. government's official web portal to all federal, state and local government web resources and services.